createdAt,value
2018-02-17T00:04:01.637Z,1023.44
2018-02-17T00:19:01.676Z,1023.5
2018-02-17T00:34:01.606Z,1023.54
2018-02-17T00:49:02.622Z,1023.6300000000001
2018-02-17T01:04:01.664Z,1023.6300000000001
2018-02-17T01:19:02.693Z,1023.56
2018-02-17T01:34:01.560Z,1023.5799999999999
2018-02-17T01:49:01.576Z,1023.5799999999999
2018-02-17T01:54:01.523Z,1023.5799999999999
2018-02-17T02:09:01.576Z,1023.52
2018-02-17T02:19:01.664Z,1023.55
2018-02-17T02:29:01.562Z,1023.53
2018-02-17T02:39:01.603Z,1023.53
2018-02-17T02:54:01.710Z,1023.48
2018-02-17T03:04:01.659Z,1023.4300000000001
2018-02-17T03:14:01.577Z,1023.45
2018-02-17T03:29:01.655Z,1023.3599999999999
2018-02-17T03:34:01.507Z,1023.3599999999999
2018-02-17T03:49:01.582Z,1023.4000000000001
2018-02-17T04:04:02.624Z,1023.3900000000001
2018-02-17T04:19:01.624Z,1023.53
2018-02-17T04:29:01.575Z,1023.55
2018-02-17T04:44:01.581Z,1023.5799999999999
2018-02-17T04:59:01.575Z,1023.49
2018-02-17T05:04:01.562Z,1023.49
2018-02-17T05:19:02.530Z,1023.4100000000001
2018-02-17T05:34:01.626Z,1023.3499999999999
2018-02-17T05:49:01.471Z,1023.3399999999999
2018-02-17T06:04:01.427Z,1023.46
2018-02-17T06:19:01.398Z,1023.54
2018-02-17T06:29:01.383Z,1023.45
2018-02-17T06:44:01.428Z,1023.4200000000001
2018-02-17T06:59:01.386Z,1023.3
2018-02-17T07:14:01.400Z,1023.29
2018-02-17T07:29:01.402Z,1023.3199999999999
2018-02-17T07:39:01.401Z,1023.3299999999999
2018-02-17T07:54:01.418Z,1023.3599999999999
2018-02-17T08:09:01.220Z,1023.3199999999999
2018-02-17T08:19:01.392Z,1023.3499999999999
2018-02-17T08:29:01.427Z,1023.4200000000001
2018-02-17T08:34:01.407Z,1023.4200000000001
2018-02-17T08:44:01.405Z,1023.3299999999999
2018-02-17T08:54:01.396Z,1023.3599999999999
2018-02-17T08:59:01.395Z,1023.3199999999999
2018-02-17T09:04:01.381Z,1023.3199999999999
2018-02-17T09:14:01.377Z,1023.3599999999999
2018-02-17T09:19:01.448Z,1023.4100000000001
2018-02-17T09:29:01.392Z,1023.45
2018-02-17T09:39:01.463Z,1023.4000000000001
2018-02-17T09:49:01.634Z,1023.3499999999999
2018-02-17T09:59:01.570Z,1023.3599999999999
2018-02-17T10:04:01.567Z,1023.3599999999999
2018-02-17T10:09:01.669Z,1023.3299999999999
2018-02-17T10:19:02.459Z,1023.29
2018-02-17T10:24:01.498Z,1023.29
2018-02-17T10:29:01.578Z,1023.3800000000001
2018-02-17T10:35:01.492Z,1023.3800000000001
2018-02-17T10:40:01.560Z,1023.4200000000001
2018-02-17T10:45:01.751Z,1023.4200000000001
2018-02-17T10:50:01.620Z,1023.4100000000001
2018-02-17T10:55:01.499Z,1023.4100000000001
2018-02-17T11:00:02.744Z,1023.4200000000001
2018-02-17T11:05:01.592Z,1023.4200000000001
2018-02-17T11:10:01.595Z,1023.4000000000001
2018-02-17T11:15:01.681Z,1023.4000000000001
2018-02-17T11:25:02.597Z,1023.3599999999999
2018-02-17T11:30:01.726Z,1023.3399999999999
2018-02-17T11:35:01.530Z,1023.3399999999999
2018-02-17T11:45:01.797Z,1023.3800000000001
2018-02-17T11:55:01.624Z,1023.3299999999999
2018-02-17T12:00:01.714Z,1023.4000000000001
2018-02-17T12:05:01.549Z,1023.4000000000001
2018-02-17T12:15:01.927Z,1023.3299999999999
2018-02-17T12:20:02.610Z,1023.4100000000001
2018-02-17T12:30:01.720Z,1023.4200000000001
2018-02-17T12:45:01.796Z,1023.44
2018-02-17T13:00:01.881Z,1023.3900000000001
2018-02-17T13:15:01.712Z,1023.4200000000001
2018-02-17T13:30:01.706Z,1023.3499999999999
2018-02-17T13:45:01.826Z,1023.28
2018-02-17T14:00:01.634Z,1023.25
2018-02-17T14:15:01.655Z,1023.3499999999999
2018-02-17T14:30:01.646Z,1023.4200000000001
2018-02-17T14:45:01.425Z,1023.3199999999999
2018-02-17T15:00:01.426Z,1023.46
2018-02-17T15:05:01.407Z,1023.46
2018-02-17T15:15:01.427Z,1023.51
2018-02-17T15:30:01.411Z,1023.6300000000001
2018-02-17T15:40:01.395Z,1023.6600000000001
2018-02-17T15:45:01.409Z,1023.6600000000001
2018-02-17T15:56:01.369Z,1023.6500000000001
2018-02-17T16:06:01.404Z,1023.6800000000001
2018-02-17T16:16:01.423Z,1023.78
2018-02-17T16:26:01.428Z,1023.8499999999999
2018-02-17T16:31:01.484Z,1023.81
2018-02-17T16:41:01.423Z,1023.96
2018-02-17T16:51:01.391Z,1023.94
2018-02-17T17:01:01.397Z,1024.0
2018-02-17T17:06:01.447Z,1024.0
2018-02-17T17:16:01.397Z,1024.09
2018-02-17T17:21:02.405Z,1024.14
2018-02-17T17:31:01.410Z,1024.18
2018-02-17T17:41:01.263Z,1024.25
2018-02-17T17:46:01.480Z,1024.25
2018-02-17T17:56:02.567Z,1024.41
2018-02-17T18:06:02.984Z,1024.44
2018-02-17T18:16:02.730Z,1024.38
2018-02-17T18:31:01.791Z,1024.45
2018-02-17T18:46:01.551Z,1024.53
2018-02-17T19:01:01.660Z,1024.63
2018-02-17T19:16:01.639Z,1024.71
2018-02-17T19:31:01.649Z,1024.69
2018-02-17T19:36:01.489Z,1024.69
2018-02-17T19:51:01.555Z,1024.86
2018-02-17T20:01:01.628Z,1024.94
2018-02-17T20:16:01.581Z,1025.04
2018-02-17T20:31:01.634Z,1025.13
2018-02-17T20:46:01.555Z,1025.21
2018-02-17T21:01:01.823Z,1025.37
2018-02-17T21:06:01.493Z,1025.37
2018-02-17T21:21:01.640Z,1025.47
2018-02-17T21:36:01.633Z,1025.55
2018-02-17T21:51:01.620Z,1025.72
2018-02-17T22:07:01.615Z,1025.72
2018-02-17T22:22:01.569Z,1025.77
2018-02-17T22:37:01.630Z,1025.77
2018-02-17T22:52:01.678Z,1025.87
2018-02-17T23:07:01.628Z,1025.87
2018-02-17T23:22:01.588Z,1025.97
2018-02-17T23:27:01.486Z,1025.97
2018-02-17T23:42:04.781Z,1025.86
2018-02-17T23:57:01.621Z,1025.87
